sensor_id;sensor_type;location;lat;lon;timestamp;temperature;humidity
46508;DHT22;32223;53.654;10.014;2023-08-30T00:00:31;13.40;99.90
46508;DHT22;32223;53.654;10.014;2023-08-30T00:02:56;13.40;99.90
46508;DHT22;32223;53.654;10.014;2023-08-30T00:05:22;13.40;99.90
46508;DHT22;32223;53.654;10.014;2023-08-30T00:07:48;13.40;99.90
46508;DHT22;32223;53.654;10.014;2023-08-30T00:10:14;13.30;99.90
46508;DHT22;32223;53.654;10.014;2023-08-30T00:12:40;13.30;99.90
46508;DHT22;32223;53.654;10.014;2023-08-30T00:15:06;13.30;99.90
46508;DHT22;32223;53.654;10.014;2023-08-30T00:17:32;13.20;99.90
46508;DHT22;32223;53.654;10.014;2023-08-30T00:19:58;13.20;99.90
46508;DHT22;32223;53.654;10.014;2023-08-30T00:22:25;13.10;99.90
46508;DHT22;32223;53.654;10.014;2023-08-30T00:24:53;13.10;99.90
46508;DHT22;32223;53.654;10.014;2023-08-30T00:27:18;13.10;99.90
46508;DHT22;32223;53.654;10.014;2023-08-30T00:29:46;13.00;99.90
46508;DHT22;32223;53.654;10.014;2023-08-30T00:32:11;13.10;99.90
46508;DHT22;32223;53.654;10.014;2023-08-30T00:34:37;13.00;99.90
46508;DHT22;32223;53.654;10.014;2023-08-30T00:37:03;13.00;99.90
46508;DHT22;32223;53.654;10.014;2023-08-30T00:39:29;12.90;99.90
46508;DHT22;32223;53.654;10.014;2023-08-30T00:41:54;12.90;99.90
46508;DHT22;32223;53.654;10.014;2023-08-30T00:44:20;12.90;99.90
46508;DHT22;32223;53.654;10.014;2023-08-30T00:46:45;12.90;99.90
46508;DHT22;32223;53.654;10.014;2023-08-30T00:49:11;12.80;99.90
46508;DHT22;32223;53.654;10.014;2023-08-30T00:51:37;12.80;99.90
46508;DHT22;32223;53.654;10.014;2023-08-30T00:54:03;12.80;99.90
46508;DHT22;32223;53.654;10.014;2023-08-30T00:56:29;12.80;99.90
46508;DHT22;32223;53.654;10.014;2023-08-30T00:58:55;12.70;99.90
46508;DHT22;32223;53.654;10.014;2023-08-30T01:01:21;12.70;99.90
46508;DHT22;32223;53.654;10.014;2023-08-30T01:03:47;12.70;99.90
46508;DHT22;32223;53.654;10.014;2023-08-30T01:06:13;12.60;99.90
46508;DHT22;32223;53.654;10.014;2023-08-30T01:08:40;12.70;99.90
46508;DHT22;32223;53.654;10.014;2023-08-30T01:11:19;12.60;99.90
46508;DHT22;32223;53.654;10.014;2023-08-30T01:14:12;12.60;99.90
46508;DHT22;32223;53.654;10.014;2023-08-30T01:16:39;12.60;99.90
46508;DHT22;32223;53.654;10.014;2023-08-30T01:27:25;12.50;99.90
46508;DHT22;32223;53.654;10.014;2023-08-30T01:29:54;12.50;99.90
46508;DHT22;32223;53.654;10.014;2023-08-30T01:32:22;12.50;99.90
46508;DHT22;32223;53.654;10.014;2023-08-30T01:34:51;12.50;99.90
46508;DHT22;32223;53.654;10.014;2023-08-30T01:37:17;12.50;99.90
46508;DHT22;32223;53.654;10.014;2023-08-30T01:39:43;12.50;99.90
46508;DHT22;32223;53.654;10.014;2023-08-30T01:42:10;12.60;99.90
46508;DHT22;32223;53.654;10.014;2023-08-30T01:44:36;12.60;99.90
46508;DHT22;32223;53.654;10.014;2023-08-30T01:47:03;12.60;99.90
46508;DHT22;32223;53.654;10.014;2023-08-30T01:49:30;12.60;99.90
46508;DHT22;32223;53.654;10.014;2023-08-30T01:51:59;12.60;99.90
46508;DHT22;32223;53.654;10.014;2023-08-30T01:54:27;12.60;99.90
46508;DHT22;32223;53.654;10.014;2023-08-30T01:56:53;12.60;99.90
46508;DHT22;32223;53.654;10.014;2023-08-30T01:59:19;12.60;99.90
46508;DHT22;32223;53.654;10.014;2023-08-30T02:01:44;12.60;99.90
46508;DHT22;32223;53.654;10.014;2023-08-30T02:04:10;12.60;99.90
46508;DHT22;32223;53.654;10.014;2023-08-30T02:10:17;12.60;99.90
46508;DHT22;32223;53.654;10.014;2023-08-30T02:12:24;12.60;99.90
46508;DHT22;32223;53.654;10.014;2023-08-30T02:14:52;12.60;99.90
46508;DHT22;32223;53.654;10.014;2023-08-30T02:17:19;12.60;99.90
46508;DHT22;32223;53.654;10.014;2023-08-30T02:19:46;12.60;99.90
46508;DHT22;32223;53.654;10.014;2023-08-30T02:22:12;12.50;99.90
46508;DHT22;32223;53.654;10.014;2023-08-30T02:24:38;12.50;99.90
46508;DHT22;32223;53.654;10.014;2023-08-30T02:27:04;12.50;99.90
46508;DHT22;32223;53.654;10.014;2023-08-30T02:29:30;12.50;99.90
46508;DHT22;32223;53.654;10.014;2023-08-30T02:31:55;12.50;99.90
46508;DHT22;32223;53.654;10.014;2023-08-30T02:34:21;12.60;99.90
46508;DHT22;32223;53.654;10.014;2023-08-30T02:36:47;12.60;99.90
46508;DHT22;32223;53.654;10.014;2023-08-30T02:39:14;12.60;99.90
46508;DHT22;32223;53.654;10.014;2023-08-30T02:41:41;12.60;99.90
46508;DHT22;32223;53.654;10.014;2023-08-30T02:44:11;12.70;99.90
46508;DHT22;32223;53.654;10.014;2023-08-30T02:46:36;12.70;99.90
46508;DHT22;32223;53.654;10.014;2023-08-30T02:49:03;12.70;99.90
46508;DHT22;32223;53.654;10.014;2023-08-30T02:51:29;12.60;99.90
46508;DHT22;32223;53.654;10.014;2023-08-30T02:53:54;12.70;99.90
46508;DHT22;32223;53.654;10.014;2023-08-30T02:56:20;12.70;99.90
46508;DHT22;32223;53.654;10.014;2023-08-30T02:58:45;12.70;99.90
46508;DHT22;32223;53.654;10.014;2023-08-30T03:01:11;12.70;99.90
46508;DHT22;32223;53.654;10.014;2023-08-30T03:03:37;12.70;99.90
46508;DHT22;32223;53.654;10.014;2023-08-30T03:06:02;12.80;99.90
46508;DHT22;32223;53.654;10.014;2023-08-30T03:08:28;12.80;99.90
46508;DHT22;32223;53.654;10.014;2023-08-30T03:10:54;12.90;99.90
46508;DHT22;32223;53.654;10.014;2023-08-30T03:13:19;12.90;99.90
46508;DHT22;32223;53.654;10.014;2023-08-30T03:15:45;12.90;99.90
46508;DHT22;32223;53.654;10.014;2023-08-30T03:18:10;12.90;99.90
46508;DHT22;32223;53.654;10.014;2023-08-30T03:20:36;12.90;99.90
46508;DHT22;32223;53.654;10.014;2023-08-30T03:23:02;12.90;99.90
46508;DHT22;32223;53.654;10.014;2023-08-30T03:25:30;13.00;99.90
46508;DHT22;32223;53.654;10.014;2023-08-30T03:27:56;13.00;99.90
46508;DHT22;32223;53.654;10.014;2023-08-30T03:30:21;13.00;99.90
46508;DHT22;32223;53.654;10.014;2023-08-30T03:32:47;13.10;99.90
46508;DHT22;32223;53.654;10.014;2023-08-30T03:35:13;13.10;99.90
46508;DHT22;32223;53.654;10.014;2023-08-30T03:37:40;13.10;99.90
46508;DHT22;32223;53.654;10.014;2023-08-30T03:40:06;13.20;99.90
46508;DHT22;32223;53.654;10.014;2023-08-30T03:42:32;13.20;99.90
46508;DHT22;32223;53.654;10.014;2023-08-30T03:44:58;13.20;99.90
46508;DHT22;32223;53.654;10.014;2023-08-30T03:47:23;13.20;99.90
46508;DHT22;32223;53.654;10.014;2023-08-30T03:49:49;13.30;99.90
46508;DHT22;32223;53.654;10.014;2023-08-30T03:52:14;13.30;99.90
46508;DHT22;32223;53.654;10.014;2023-08-30T03:54:40;13.30;99.90
46508;DHT22;32223;53.654;10.014;2023-08-30T03:57:06;13.20;99.90
46508;DHT22;32223;53.654;10.014;2023-08-30T03:59:31;13.20;99.90
46508;DHT22;32223;53.654;10.014;2023-08-30T04:01:58;13.30;99.90
46508;DHT22;32223;53.654;10.014;2023-08-30T04:04:24;13.20;99.90
46508;DHT22;32223;53.654;10.014;2023-08-30T04:06:49;13.30;99.90
46508;DHT22;32223;53.654;10.014;2023-08-30T04:09:15;13.40;99.90
46508;DHT22;32223;53.654;10.014;2023-08-30T04:11:41;13.50;99.90
46508;DHT22;32223;53.654;10.014;2023-08-30T04:14:07;13.50;99.90
46508;DHT22;32223;53.654;10.014;2023-08-30T04:16:33;13.60;99.90
46508;DHT22;32223;53.654;10.014;2023-08-30T04:18:58;13.60;99.90
46508;DHT22;32223;53.654;10.014;2023-08-30T04:21:24;13.60;99.90
46508;DHT22;32223;53.654;10.014;2023-08-30T04:23:50;13.70;99.90
46508;DHT22;32223;53.654;10.014;2023-08-30T04:26:15;13.70;99.90
46508;DHT22;32223;53.654;10.014;2023-08-30T04:28:41;13.70;99.90
46508;DHT22;32223;53.654;10.014;2023-08-30T04:31:06;13.80;99.90
46508;DHT22;32223;53.654;10.014;2023-08-30T04:33:32;13.80;99.90
46508;DHT22;32223;53.654;10.014;2023-08-30T04:35:58;13.80;99.90
46508;DHT22;32223;53.654;10.014;2023-08-30T04:38:26;13.90;99.90
46508;DHT22;32223;53.654;10.014;2023-08-30T04:40:57;13.80;99.90
46508;DHT22;32223;53.654;10.014;2023-08-30T04:43:23;13.90;99.90
46508;DHT22;32223;53.654;10.014;2023-08-30T04:45:49;13.80;99.90
46508;DHT22;32223;53.654;10.014;2023-08-30T04:48:15;13.90;99.90
46508;DHT22;32223;53.654;10.014;2023-08-30T04:50:40;13.90;99.90
46508;DHT22;32223;53.654;10.014;2023-08-30T04:53:06;13.90;99.90
46508;DHT22;32223;53.654;10.014;2023-08-30T04:55:31;13.90;99.90
46508;DHT22;32223;53.654;10.014;2023-08-30T04:57:57;13.90;99.90
46508;DHT22;32223;53.654;10.014;2023-08-30T05:00:23;14.00;99.90
46508;DHT22;32223;53.654;10.014;2023-08-30T05:02:49;14.10;99.90
46508;DHT22;32223;53.654;10.014;2023-08-30T05:05:14;14.10;99.90
46508;DHT22;32223;53.654;10.014;2023-08-30T05:07:40;14.10;99.90
46508;DHT22;32223;53.654;10.014;2023-08-30T05:10:06;14.20;99.90
46508;DHT22;32223;53.654;10.014;2023-08-30T05:12:33;14.30;99.90
46508;DHT22;32223;53.654;10.014;2023-08-30T05:14:59;14.20;99.90
46508;DHT22;32223;53.654;10.014;2023-08-30T05:17:25;14.30;99.90
46508;DHT22;32223;53.654;10.014;2023-08-30T05:19:51;14.30;99.90
46508;DHT22;32223;53.654;10.014;2023-08-30T05:22:16;14.40;99.90
46508;DHT22;32223;53.654;10.014;2023-08-30T05:24:42;14.40;99.90
46508;DHT22;32223;53.654;10.014;2023-08-30T05:27:07;14.40;99.90
46508;DHT22;32223;53.654;10.014;2023-08-30T05:29:33;14.40;99.90
46508;DHT22;32223;53.654;10.014;2023-08-30T05:31:59;14.40;99.90
46508;DHT22;32223;53.654;10.014;2023-08-30T05:34:24;14.50;99.90
46508;DHT22;32223;53.654;10.014;2023-08-30T05:36:52;14.50;99.90
46508;DHT22;32223;53.654;10.014;2023-08-30T05:39:18;14.60;99.90
46508;DHT22;32223;53.654;10.014;2023-08-30T05:41:44;14.60;99.90
46508;DHT22;32223;53.654;10.014;2023-08-30T05:44:11;14.70;99.90
46508;DHT22;32223;53.654;10.014;2023-08-30T05:46:36;14.60;99.90
46508;DHT22;32223;53.654;10.014;2023-08-30T05:49:02;14.60;99.90
46508;DHT22;32223;53.654;10.014;2023-08-30T05:51:28;14.70;99.90
46508;DHT22;32223;53.654;10.014;2023-08-30T05:53:54;14.70;99.90
46508;DHT22;32223;53.654;10.014;2023-08-30T05:56:20;14.70;99.90
46508;DHT22;32223;53.654;10.014;2023-08-30T05:58:45;14.80;99.90
46508;DHT22;32223;53.654;10.014;2023-08-30T06:01:11;14.90;99.90
46508;DHT22;32223;53.654;10.014;2023-08-30T06:03:36;14.90;99.90
46508;DHT22;32223;53.654;10.014;2023-08-30T06:06:02;15.00;99.90
46508;DHT22;32223;53.654;10.014;2023-08-30T06:08:28;15.00;99.90
46508;DHT22;32223;53.654;10.014;2023-08-30T06:10:54;15.10;99.90
46508;DHT22;32223;53.654;10.014;2023-08-30T06:13:20;15.20;99.90
46508;DHT22;32223;53.654;10.014;2023-08-30T06:15:50;15.30;99.90
46508;DHT22;32223;53.654;10.014;2023-08-30T06:18:15;15.30;99.90
46508;DHT22;32223;53.654;10.014;2023-08-30T06:20:42;15.50;99.90
46508;DHT22;32223;53.654;10.014;2023-08-30T06:23:07;15.50;99.90
46508;DHT22;32223;53.654;10.014;2023-08-30T06:25:33;15.50;99.90
46508;DHT22;32223;53.654;10.014;2023-08-30T06:27:59;15.60;99.90
46508;DHT22;32223;53.654;10.014;2023-08-30T06:30:27;15.70;99.90
46508;DHT22;32223;53.654;10.014;2023-08-30T06:32:52;15.80;99.90
46508;DHT22;32223;53.654;10.014;2023-08-30T06:35:18;16.00;99.90
46508;DHT22;32223;53.654;10.014;2023-08-30T06:37:44;16.10;99.90
46508;DHT22;32223;53.654;10.014;2023-08-30T06:40:09;16.20;99.90
46508;DHT22;32223;53.654;10.014;2023-08-30T06:42:35;16.40;99.90
46508;DHT22;32223;53.654;10.014;2023-08-30T06:45:02;16.40;99.90
46508;DHT22;32223;53.654;10.014;2023-08-30T06:47:28;16.50;99.90
46508;DHT22;32223;53.654;10.014;2023-08-30T06:49:54;16.50;99.90
46508;DHT22;32223;53.654;10.014;2023-08-30T06:52:19;16.60;99.90
46508;DHT22;32223;53.654;10.014;2023-08-30T06:54:45;16.70;99.90
46508;DHT22;32223;53.654;10.014;2023-08-30T06:57:10;16.80;99.90
46508;DHT22;32223;53.654;10.014;2023-08-30T06:59:36;16.80;99.90
46508;DHT22;32223;53.654;10.014;2023-08-30T07:02:02;16.80;99.90
46508;DHT22;32223;53.654;10.014;2023-08-30T07:04:28;16.90;99.90
46508;DHT22;32223;53.654;10.014;2023-08-30T07:06:54;17.00;99.90
46508;DHT22;32223;53.654;10.014;2023-08-30T07:09:19;17.00;99.90
46508;DHT22;32223;53.654;10.014;2023-08-30T07:11:45;17.00;99.90
46508;DHT22;32223;53.654;10.014;2023-08-30T07:14:11;17.10;99.90
46508;DHT22;32223;53.654;10.014;2023-08-30T07:16:38;17.20;99.90
46508;DHT22;32223;53.654;10.014;2023-08-30T07:19:03;17.20;99.90
46508;DHT22;32223;53.654;10.014;2023-08-30T07:21:29;17.20;99.90
46508;DHT22;32223;53.654;10.014;2023-08-30T07:23:55;17.20;99.90
46508;DHT22;32223;53.654;10.014;2023-08-30T07:26:20;17.30;99.90
46508;DHT22;32223;53.654;10.014;2023-08-30T07:28:46;17.30;99.90
46508;DHT22;32223;53.654;10.014;2023-08-30T07:31:11;17.20;99.90
46508;DHT22;32223;53.654;10.014;2023-08-30T07:33:40;17.20;99.90
46508;DHT22;32223;53.654;10.014;2023-08-30T07:36:06;17.10;99.90
46508;DHT22;32223;53.654;10.014;2023-08-30T07:38:32;17.20;99.90
46508;DHT22;32223;53.654;10.014;2023-08-30T07:40:57;17.30;99.90
46508;DHT22;32223;53.654;10.014;2023-08-30T07:43:23;17.30;99.90
46508;DHT22;32223;53.654;10.014;2023-08-30T07:45:49;17.30;99.90
46508;DHT22;32223;53.654;10.014;2023-08-30T07:48:14;17.30;99.90
46508;DHT22;32223;53.654;10.014;2023-08-30T07:50:40;17.30;99.90
46508;DHT22;32223;53.654;10.014;2023-08-30T07:53:06;17.40;99.90
46508;DHT22;32223;53.654;10.014;2023-08-30T07:55:32;17.40;99.90
46508;DHT22;32223;53.654;10.014;2023-08-30T07:57:57;17.40;99.90
46508;DHT22;32223;53.654;10.014;2023-08-30T08:00:23;17.40;99.90
46508;DHT22;32223;53.654;10.014;2023-08-30T08:02:48;17.50;99.90
46508;DHT22;32223;53.654;10.014;2023-08-30T08:05:14;17.60;99.90
46508;DHT22;32223;53.654;10.014;2023-08-30T08:07:42;17.80;99.90
46508;DHT22;32223;53.654;10.014;2023-08-30T08:10:07;18.00;99.90
46508;DHT22;32223;53.654;10.014;2023-08-30T08:12:33;18.10;99.90
46508;DHT22;32223;53.654;10.014;2023-08-30T08:14:59;18.00;99.90
46508;DHT22;32223;53.654;10.014;2023-08-30T08:17:25;18.10;99.90
46508;DHT22;32223;53.654;10.014;2023-08-30T08:19:50;18.20;99.90
46508;DHT22;32223;53.654;10.014;2023-08-30T08:22:16;18.20;99.90
46508;DHT22;32223;53.654;10.014;2023-08-30T08:24:42;18.20;99.90
46508;DHT22;32223;53.654;10.014;2023-08-30T08:27:11;18.20;99.90
46508;DHT22;32223;53.654;10.014;2023-08-30T08:29:37;18.30;99.90
46508;DHT22;32223;53.654;10.014;2023-08-30T08:32:03;18.30;99.90
46508;DHT22;32223;53.654;10.014;2023-08-30T08:34:29;18.30;99.90
46508;DHT22;32223;53.654;10.014;2023-08-30T08:36:55;18.50;99.90
46508;DHT22;32223;53.654;10.014;2023-08-30T08:39:21;18.60;99.90
46508;DHT22;32223;53.654;10.014;2023-08-30T08:41:47;18.80;99.90
46508;DHT22;32223;53.654;10.014;2023-08-30T08:44:13;19.00;99.90
46508;DHT22;32223;53.654;10.014;2023-08-30T08:46:41;19.10;99.90
46508;DHT22;32223;53.654;10.014;2023-08-30T08:49:13;19.00;99.90
46508;DHT22;32223;53.654;10.014;2023-08-30T08:51:40;19.00;99.90
46508;DHT22;32223;53.654;10.014;2023-08-30T08:54:07;19.00;99.90
46508;DHT22;32223;53.654;10.014;2023-08-30T08:56:34;19.10;99.90
46508;DHT22;32223;53.654;10.014;2023-08-30T08:59:01;19.30;99.90
46508;DHT22;32223;53.654;10.014;2023-08-30T09:01:27;19.20;99.90
46508;DHT22;32223;53.654;10.014;2023-08-30T09:03:53;19.40;99.90
46508;DHT22;32223;53.654;10.014;2023-08-30T09:06:19;19.40;99.90
46508;DHT22;32223;53.654;10.014;2023-08-30T09:08:46;19.40;99.90
46508;DHT22;32223;53.654;10.014;2023-08-30T09:11:11;19.50;99.90
46508;DHT22;32223;53.654;10.014;2023-08-30T09:13:37;19.60;99.90
46508;DHT22;32223;53.654;10.014;2023-08-30T09:16:02;19.50;99.90
46508;DHT22;32223;53.654;10.014;2023-08-30T09:18:28;19.40;99.90
46508;DHT22;32223;53.654;10.014;2023-08-30T09:21:14;19.50;99.90
46508;DHT22;32223;53.654;10.014;2023-08-30T09:23:40;19.60;99.90
46508;DHT22;32223;53.654;10.014;2023-08-30T09:26:05;19.70;99.90
46508;DHT22;32223;53.654;10.014;2023-08-30T09:28:31;19.80;99.90
46508;DHT22;32223;53.654;10.014;2023-08-30T09:31:06;20.10;99.90
46508;DHT22;32223;53.654;10.014;2023-08-30T09:33:33;20.10;99.90
46508;DHT22;32223;53.654;10.014;2023-08-30T09:36:00;20.30;99.90
46508;DHT22;32223;53.654;10.014;2023-08-30T09:38:25;20.20;99.90
46508;DHT22;32223;53.654;10.014;2023-08-30T09:40:52;20.20;99.90
46508;DHT22;32223;53.654;10.014;2023-08-30T09:43:19;20.20;99.90
46508;DHT22;32223;53.654;10.014;2023-08-30T09:45:47;20.10;99.90
46508;DHT22;32223;53.654;10.014;2023-08-30T09:48:13;20.10;99.90
46508;DHT22;32223;53.654;10.014;2023-08-30T09:50:41;20.00;99.90
46508;DHT22;32223;53.654;10.014;2023-08-30T09:53:11;20.00;99.90
46508;DHT22;32223;53.654;10.014;2023-08-30T09:55:39;20.00;99.90
46508;DHT22;32223;53.654;10.014;2023-08-30T09:58:06;20.00;99.90
46508;DHT22;32223;53.654;10.014;2023-08-30T10:00:32;19.90;99.90
46508;DHT22;32223;53.654;10.014;2023-08-30T10:02:59;19.90;99.90
46508;DHT22;32223;53.654;10.014;2023-08-30T10:05:29;20.00;99.90
46508;DHT22;32223;53.654;10.014;2023-08-30T10:07:56;20.10;99.90
46508;DHT22;32223;53.654;10.014;2023-08-30T10:10:26;20.10;99.90
46508;DHT22;32223;53.654;10.014;2023-08-30T10:12:51;20.10;99.90
46508;DHT22;32223;53.654;10.014;2023-08-30T10:15:21;20.00;99.90
46508;DHT22;32223;53.654;10.014;2023-08-30T10:17:48;20.00;99.90
46508;DHT22;32223;53.654;10.014;2023-08-30T10:20:16;20.10;99.90
46508;DHT22;32223;53.654;10.014;2023-08-30T10:22:43;20.00;99.90
46508;DHT22;32223;53.654;10.014;2023-08-30T10:25:18;20.10;99.90
46508;DHT22;32223;53.654;10.014;2023-08-30T10:27:46;20.20;99.90
46508;DHT22;32223;53.654;10.014;2023-08-30T10:30:13;20.30;99.90
46508;DHT22;32223;53.654;10.014;2023-08-30T10:32:43;20.40;99.90
46508;DHT22;32223;53.654;10.014;2023-08-30T10:35:18;20.40;99.90
46508;DHT22;32223;53.654;10.014;2023-08-30T10:37:54;20.20;99.90
46508;DHT22;32223;53.654;10.014;2023-08-30T10:40:20;20.20;99.90
46508;DHT22;32223;53.654;10.014;2023-08-30T10:42:58;20.10;99.90
46508;DHT22;32223;53.654;10.014;2023-08-30T10:45:23;20.10;99.90
46508;DHT22;32223;53.654;10.014;2023-08-30T10:47:55;20.20;99.90
46508;DHT22;32223;53.654;10.014;2023-08-30T10:50:31;20.30;99.90
46508;DHT22;32223;53.654;10.014;2023-08-30T10:52:57;20.30;99.90
46508;DHT22;32223;53.654;10.014;2023-08-30T10:55:23;20.50;99.90
46508;DHT22;32223;53.654;10.014;2023-08-30T10:57:59;20.80;99.90
46508;DHT22;32223;53.654;10.014;2023-08-30T11:00:27;20.80;99.90
46508;DHT22;32223;53.654;10.014;2023-08-30T11:02:52;20.70;99.90
46508;DHT22;32223;53.654;10.014;2023-08-30T11:05:21;20.80;99.90
46508;DHT22;32223;53.654;10.014;2023-08-30T11:07:48;20.70;99.90
46508;DHT22;32223;53.654;10.014;2023-08-30T11:10:15;20.70;99.90
46508;DHT22;32223;53.654;10.014;2023-08-30T11:12:41;20.90;99.90
46508;DHT22;32223;53.654;10.014;2023-08-30T11:15:09;21.10;99.90
46508;DHT22;32223;53.654;10.014;2023-08-30T11:17:35;21.10;99.90
46508;DHT22;32223;53.654;10.014;2023-08-30T11:20:07;21.10;99.90
46508;DHT22;32223;53.654;10.014;2023-08-30T11:22:41;21.20;99.90
46508;DHT22;32223;53.654;10.014;2023-08-30T11:25:11;21.30;99.90
46508;DHT22;32223;53.654;10.014;2023-08-30T11:27:41;21.30;99.90
46508;DHT22;32223;53.654;10.014;2023-08-30T11:30:08;21.40;99.90
46508;DHT22;32223;53.654;10.014;2023-08-30T11:32:39;21.50;99.90
46508;DHT22;32223;53.654;10.014;2023-08-30T11:35:06;21.70;99.90
46508;DHT22;32223;53.654;10.014;2023-08-30T11:37:32;21.70;99.90
46508;DHT22;32223;53.654;10.014;2023-08-30T11:39:59;21.70;99.90
46508;DHT22;32223;53.654;10.014;2023-08-30T11:42:26;21.50;99.90
46508;DHT22;32223;53.654;10.014;2023-08-30T11:44:52;21.40;99.90
46508;DHT22;32223;53.654;10.014;2023-08-30T11:47:19;21.30;99.90
46508;DHT22;32223;53.654;10.014;2023-08-30T11:49:47;21.30;99.90
46508;DHT22;32223;53.654;10.014;2023-08-30T11:52:13;21.50;99.90
46508;DHT22;32223;53.654;10.014;2023-08-30T11:54:39;21.70;99.90
46508;DHT22;32223;53.654;10.014;2023-08-30T11:57:08;21.90;99.90
46508;DHT22;32223;53.654;10.014;2023-08-30T11:59:35;22.30;99.90
46508;DHT22;32223;53.654;10.014;2023-08-30T12:02:02;22.40;99.90
46508;DHT22;32223;53.654;10.014;2023-08-30T12:04:27;22.20;99.90
46508;DHT22;32223;53.654;10.014;2023-08-30T12:06:53;22.10;99.90
46508;DHT22;32223;53.654;10.014;2023-08-30T12:09:19;22.20;99.90
46508;DHT22;32223;53.654;10.014;2023-08-30T12:11:48;22.30;99.90
46508;DHT22;32223;53.654;10.014;2023-08-30T12:14:13;22.50;99.90
46508;DHT22;32223;53.654;10.014;2023-08-30T12:16:40;22.60;99.90
46508;DHT22;32223;53.654;10.014;2023-08-30T12:19:12;22.90;99.90
46508;DHT22;32223;53.654;10.014;2023-08-30T12:21:43;23.10;99.90
46508;DHT22;32223;53.654;10.014;2023-08-30T12:24:09;23.20;99.90
46508;DHT22;32223;53.654;10.014;2023-08-30T12:26:35;23.40;99.90
46508;DHT22;32223;53.654;10.014;2023-08-30T12:29:03;23.60;99.90
46508;DHT22;32223;53.654;10.014;2023-08-30T12:31:29;23.40;99.90
46508;DHT22;32223;53.654;10.014;2023-08-30T12:33:56;23.10;99.90
46508;DHT22;32223;53.654;10.014;2023-08-30T12:36:22;22.90;99.90
46508;DHT22;32223;53.654;10.014;2023-08-30T12:38:48;22.60;99.90
46508;DHT22;32223;53.654;10.014;2023-08-30T12:41:13;22.90;99.90
46508;DHT22;32223;53.654;10.014;2023-08-30T12:43:39;23.30;99.90
46508;DHT22;32223;53.654;10.014;2023-08-30T12:46:05;23.70;99.90
46508;DHT22;32223;53.654;10.014;2023-08-30T12:48:30;24.00;99.90
46508;DHT22;32223;53.654;10.014;2023-08-30T12:50:56;24.50;99.90
46508;DHT22;32223;53.654;10.014;2023-08-30T12:53:21;24.80;99.90
46508;DHT22;32223;53.654;10.014;2023-08-30T12:55:47;24.60;99.90
46508;DHT22;32223;53.654;10.014;2023-08-30T12:58:13;24.20;99.90
46508;DHT22;32223;53.654;10.014;2023-08-30T13:00:39;24.10;99.90
46508;DHT22;32223;53.654;10.014;2023-08-30T13:03:05;24.40;99.90
46508;DHT22;32223;53.654;10.014;2023-08-30T13:05:31;24.30;99.90
46508;DHT22;32223;53.654;10.014;2023-08-30T13:07:58;24.10;99.90
46508;DHT22;32223;53.654;10.014;2023-08-30T13:10:23;24.00;99.90
46508;DHT22;32223;53.654;10.014;2023-08-30T13:12:49;24.50;99.90
46508;DHT22;32223;53.654;10.014;2023-08-30T13:15:14;25.30;99.90
46508;DHT22;32223;53.654;10.014;2023-08-30T13:17:40;26.30;99.90
46508;DHT22;32223;53.654;10.014;2023-08-30T13:20:06;26.40;99.30
46508;DHT22;32223;53.654;10.014;2023-08-30T13:22:32;27.10;98.20
46508;DHT22;32223;53.654;10.014;2023-08-30T13:24:58;27.00;95.80
46508;DHT22;32223;53.654;10.014;2023-08-30T13:27:23;26.80;94.70
46508;DHT22;32223;53.654;10.014;2023-08-30T13:29:49;26.80;95.00
46508;DHT22;32223;53.654;10.014;2023-08-30T13:32:14;27.10;96.00
46508;DHT22;32223;53.654;10.014;2023-08-30T13:34:40;27.60;94.50
46508;DHT22;32223;53.654;10.014;2023-08-30T13:37:08;28.40;92.60
46508;DHT22;32223;53.654;10.014;2023-08-30T13:39:34;28.50;91.10
46508;DHT22;32223;53.654;10.014;2023-08-30T13:42:00;27.70;90.90
46508;DHT22;32223;53.654;10.014;2023-08-30T13:44:25;27.00;91.30
46508;DHT22;32223;53.654;10.014;2023-08-30T13:46:51;26.30;91.60
46508;DHT22;32223;53.654;10.014;2023-08-30T13:49:16;25.50;91.80
46508;DHT22;32223;53.654;10.014;2023-08-30T13:51:45;24.90;92.60
46508;DHT22;32223;53.654;10.014;2023-08-30T13:54:11;24.70;93.60
46508;DHT22;32223;53.654;10.014;2023-08-30T13:56:37;25.10;92.10
46508;DHT22;32223;53.654;10.014;2023-08-30T13:59:06;26.20;92.30
46508;DHT22;32223;53.654;10.014;2023-08-30T14:01:32;27.60;93.40
46508;DHT22;32223;53.654;10.014;2023-08-30T14:03:57;28.30;92.10
46508;DHT22;32223;53.654;10.014;2023-08-30T14:06:23;28.30;89.90
46508;DHT22;32223;53.654;10.014;2023-08-30T14:08:49;28.50;91.00
46508;DHT22;32223;53.654;10.014;2023-08-30T14:11:15;28.70;90.30
46508;DHT22;32223;53.654;10.014;2023-08-30T14:13:40;29.40;89.50
46508;DHT22;32223;53.654;10.014;2023-08-30T14:16:06;29.90;86.70
46508;DHT22;32223;53.654;10.014;2023-08-30T14:18:32;29.90;82.80
46508;DHT22;32223;53.654;10.014;2023-08-30T14:20:58;29.10;83.40
46508;DHT22;32223;53.654;10.014;2023-08-30T14:23:25;27.70;82.70
46508;DHT22;32223;53.654;10.014;2023-08-30T14:26:02;26.70;85.00
46508;DHT22;32223;53.654;10.014;2023-08-30T14:28:34;25.50;86.50
46508;DHT22;32223;53.654;10.014;2023-08-30T14:30:59;24.80;87.80
46508;DHT22;32223;53.654;10.014;2023-08-30T14:33:25;24.30;89.00
46508;DHT22;32223;53.654;10.014;2023-08-30T14:35:51;23.60;90.90
46508;DHT22;32223;53.654;10.014;2023-08-30T14:38:16;23.00;91.60
46508;DHT22;32223;53.654;10.014;2023-08-30T14:40:42;22.60;91.90
46508;DHT22;32223;53.654;10.014;2023-08-30T14:43:08;22.20;92.90
46508;DHT22;32223;53.654;10.014;2023-08-30T14:45:33;22.00;93.40
46508;DHT22;32223;53.654;10.014;2023-08-30T14:47:59;21.70;93.90
46508;DHT22;32223;53.654;10.014;2023-08-30T14:50:24;21.60;94.40
46508;DHT22;32223;53.654;10.014;2023-08-30T14:52:50;21.60;95.00
46508;DHT22;32223;53.654;10.014;2023-08-30T14:55:17;21.50;95.50
46508;DHT22;32223;53.654;10.014;2023-08-30T14:57:43;21.30;96.40
46508;DHT22;32223;53.654;10.014;2023-08-30T15:00:09;21.20;97.10
46508;DHT22;32223;53.654;10.014;2023-08-30T15:02:34;21.00;97.90
46508;DHT22;32223;53.654;10.014;2023-08-30T15:05:00;21.00;99.00
46508;DHT22;32223;53.654;10.014;2023-08-30T15:07:25;20.90;99.90
46508;DHT22;32223;53.654;10.014;2023-08-30T15:09:51;20.90;99.90
46508;DHT22;32223;53.654;10.014;2023-08-30T15:12:17;20.90;99.90
46508;DHT22;32223;53.654;10.014;2023-08-30T15:14:42;20.80;99.90
46508;DHT22;32223;53.654;10.014;2023-08-30T15:17:09;20.80;99.90
46508;DHT22;32223;53.654;10.014;2023-08-30T15:19:35;20.80;99.90
46508;DHT22;32223;53.654;10.014;2023-08-30T15:22:01;20.70;99.90